createdAt,value
2022-10-29T00:00:07.017Z,101342.06
2022-10-29T00:02:34.731Z,101330.97
2022-10-29T00:05:02.438Z,101344.34
2022-10-29T00:07:31.359Z,101342.84
2022-10-29T00:09:59.072Z,101340.94
2022-10-29T00:12:26.723Z,101342.47
2022-10-29T00:14:54.329Z,101339.53
2022-10-29T00:17:22.019Z,101351.66
2022-10-29T00:19:50.058Z,101347.19
2022-10-29T00:22:17.616Z,101354.06
2022-10-29T00:24:46.535Z,101351.41
2022-10-29T00:27:14.227Z,101346.03
2022-10-29T00:29:41.840Z,101354.63
2022-10-29T00:32:10.444Z,101345.69
2022-10-29T00:34:38.598Z,101342.38
2022-10-29T00:37:06.282Z,101347.34
2022-10-29T00:39:34.339Z,101336.31
2022-10-29T00:42:04.833Z,101346.19
2022-10-29T00:44:35.610Z,101351.47
2022-10-29T00:47:11.529Z,101348.69
2022-10-29T00:49:40.702Z,101345.13
2022-10-29T00:52:08.970Z,101344.09
2022-10-29T00:54:39.836Z,101341.59
2022-10-29T00:57:10.999Z,101342.66
2022-10-29T00:59:38.681Z,101347.41
2022-10-29T01:02:06.587Z,101342.53
2022-10-29T01:04:35.223Z,101350.00
2022-10-29T01:07:04.191Z,101354.88
2022-10-29T01:09:31.743Z,101354.06
2022-10-29T01:12:13.850Z,101350.56
2022-10-29T01:14:48.309Z,101348.13
2022-10-29T01:17:22.747Z,101340.97
2022-10-29T01:20:09.182Z,101339.31
2022-10-29T01:22:39.703Z,101332.16
2022-10-29T01:25:29.832Z,101338.28
2022-10-29T01:28:04.591Z,101328.03
2022-10-29T01:31:00.939Z,101322.91
2022-10-29T01:33:32.759Z,101316.53
2022-10-29T01:36:06.077Z,101332.38
2022-10-29T01:38:37.711Z,101329.88
2022-10-29T01:41:09.313Z,101320.78
2022-10-29T01:43:39.817Z,101321.63
2022-10-29T01:46:12.492Z,101317.84
2022-10-29T01:48:44.073Z,101329.53
2022-10-29T01:51:14.915Z,101341.22
2022-10-29T01:53:42.488Z,101328.50
2022-10-29T01:56:09.947Z,101336.59
2022-10-29T01:58:38.002Z,101338.13
2022-10-29T02:01:16.648Z,101342.13
2022-10-29T02:03:50.055Z,101339.06
2022-10-29T02:06:21.902Z,101339.41
2022-10-29T02:08:56.308Z,101344.94
2022-10-29T02:11:26.759Z,101334.34
2022-10-29T02:13:59.419Z,101326.16
2022-10-29T02:16:28.642Z,101324.50
2022-10-29T02:18:57.115Z,101322.84
2022-10-29T02:21:24.803Z,101331.28
2022-10-29T02:23:52.636Z,101328.25
2022-10-29T02:26:21.720Z,101327.56
2022-10-29T02:28:49.222Z,101331.75
2022-10-29T02:31:16.693Z,101332.56
2022-10-29T02:33:45.533Z,101326.88
2022-10-29T02:36:13.003Z,101326.88
2022-10-29T02:38:40.503Z,101333.41
2022-10-29T02:41:08.014Z,101334.69
2022-10-29T02:43:35.574Z,101327.25
2022-10-29T02:46:13.778Z,101331.19
2022-10-29T02:48:41.322Z,101322.84
2022-10-29T02:51:10.372Z,101336.28
2022-10-29T02:53:37.942Z,101335.34
2022-10-29T02:56:06.296Z,101328.25
2022-10-29T02:58:34.101Z,101333.03
2022-10-29T03:01:01.747Z,101338.69
2022-10-29T03:03:29.416Z,101329.91
2022-10-29T03:05:56.891Z,101322.34
2022-10-29T03:08:25.752Z,101315.50
2022-10-29T03:10:53.224Z,101320.50
2022-10-29T03:13:20.669Z,101325.56
2022-10-29T03:15:48.133Z,101317.03
2022-10-29T03:18:15.589Z,101320.09
2022-10-29T03:20:43.566Z,101340.13
2022-10-29T03:23:11.014Z,101316.91
2022-10-29T03:25:40.004Z,101321.06
2022-10-29T03:28:07.652Z,101314.06
2022-10-29T03:30:35.096Z,101314.91
2022-10-29T03:33:02.776Z,101315.69
2022-10-29T03:35:30.298Z,101329.56
2022-10-29T03:37:57.807Z,101331.16
2022-10-29T03:40:25.257Z,101334.69
2022-10-29T03:42:54.569Z,101330.19
2022-10-29T03:45:22.259Z,101336.56
2022-10-29T03:47:49.806Z,101339.91
2022-10-29T03:50:17.754Z,101338.72
2022-10-29T03:52:45.231Z,101341.38
2022-10-29T03:55:12.707Z,101332.38
2022-10-29T03:57:40.228Z,101327.81
2022-10-29T04:00:11.110Z,101330.81
2022-10-29T04:02:38.645Z,101342.00
2022-10-29T04:05:06.758Z,101339.50
2022-10-29T04:07:34.248Z,101341.38
2022-10-29T04:10:01.767Z,101339.50
2022-10-29T04:12:29.279Z,101333.09
2022-10-29T04:14:56.781Z,101322.25
2022-10-29T04:17:25.602Z,101332.00
2022-10-29T04:19:53.118Z,101351.03
2022-10-29T04:30:44.406Z,101332.63
2022-10-29T04:33:13.240Z,101321.28
2022-10-29T04:35:40.707Z,101303.69
2022-10-29T04:38:09.415Z,101305.41
2022-10-29T04:40:36.876Z,101301.53
2022-10-29T04:43:04.433Z,101308.06
2022-10-29T04:45:32.064Z,101306.41
2022-10-29T04:48:00.721Z,101304.59
2022-10-29T04:50:29.799Z,101306.28
2022-10-29T04:52:59.341Z,101300.06
2022-10-29T04:55:26.872Z,101302.69
2022-10-29T04:57:54.865Z,101315.13
2022-10-29T05:00:23.668Z,101309.34
2022-10-29T05:02:51.716Z,101322.53
2022-10-29T05:05:20.249Z,101326.75
2022-10-29T05:07:49.077Z,101324.59
2022-10-29T05:10:16.644Z,101317.09
2022-10-29T05:12:44.120Z,101323.31
2022-10-29T05:15:11.976Z,101313.38
2022-10-29T05:17:39.666Z,101307.06
2022-10-29T05:20:08.307Z,101306.22
2022-10-29T05:22:35.760Z,101306.22
2022-10-29T05:25:04.956Z,101305.28
2022-10-29T05:27:32.414Z,101303.81
2022-10-29T05:29:59.913Z,101311.06
2022-10-29T05:32:29.355Z,101312.22
2022-10-29T05:34:56.944Z,101315.06
2022-10-29T05:37:25.396Z,101307.69
2022-10-29T05:39:52.884Z,101305.97
2022-10-29T05:42:21.693Z,101316.03
2022-10-29T05:44:49.174Z,101307.06
2022-10-29T05:47:16.640Z,101310.56
2022-10-29T05:49:44.091Z,101311.34
2022-10-29T05:52:11.848Z,101309.16
2022-10-29T05:54:39.334Z,101307.94
2022-10-29T05:57:06.812Z,101307.50
2022-10-29T05:59:35.679Z,101308.50
2022-10-29T06:02:03.253Z,101311.22
2022-10-29T06:04:30.827Z,101303.75
2022-10-29T06:06:58.341Z,101307.75
2022-10-29T06:09:25.887Z,101304.22
2022-10-29T06:11:53.369Z,101307.50
2022-10-29T06:14:20.852Z,101301.38
2022-10-29T06:16:49.656Z,101307.91
2022-10-29T06:19:17.127Z,101307.97
2022-10-29T06:21:44.602Z,101310.63
2022-10-29T06:24:13.473Z,101306.31
2022-10-29T06:26:41.195Z,101309.81
2022-10-29T06:29:08.716Z,101312.84
2022-10-29T06:31:36.194Z,101310.63
2022-10-29T06:34:05.048Z,101310.59
2022-10-29T06:36:32.514Z,101306.09
2022-10-29T06:39:00.109Z,101318.97
2022-10-29T06:41:27.575Z,101317.63
2022-10-29T06:43:55.211Z,101323.81
2022-10-29T06:46:22.702Z,101324.94
2022-10-29T06:48:50.222Z,101326.09
2022-10-29T06:51:19.067Z,101321.19
2022-10-29T06:53:46.549Z,101315.84
2022-10-29T06:56:14.019Z,101325.22
2022-10-29T06:58:41.543Z,101322.56
2022-10-29T07:01:09.278Z,101336.19
2022-10-29T07:03:38.035Z,101332.81
2022-10-29T07:06:06.044Z,101338.16
2022-10-29T07:08:34.906Z,101331.16
2022-10-29T07:11:04.421Z,101345.44
2022-10-29T07:13:32.375Z,101333.88
2022-10-29T07:15:59.976Z,101329.50
2022-10-29T07:18:27.414Z,101330.91
2022-10-29T07:20:54.884Z,101329.91
2022-10-29T07:23:22.922Z,101335.19
2022-10-29T07:25:53.251Z,101325.25
2022-10-29T07:28:23.126Z,101330.25
2022-10-29T07:30:51.338Z,101328.78
2022-10-29T07:33:19.476Z,101324.06
2022-10-29T07:35:47.157Z,101341.41
2022-10-29T07:38:14.911Z,101342.75
2022-10-29T07:40:48.232Z,101348.75
2022-10-29T07:43:17.552Z,101340.03
2022-10-29T07:45:46.209Z,101340.16
2022-10-29T07:48:14.006Z,101336.47
2022-10-29T07:50:41.710Z,101332.88
2022-10-29T07:53:09.736Z,101345.81
2022-10-29T07:55:37.451Z,101337.63
2022-10-29T07:58:06.371Z,101342.06
2022-10-29T08:00:36.647Z,101335.31
2022-10-29T08:03:04.457Z,101336.63
2022-10-29T08:05:32.519Z,101342.91
2022-10-29T08:08:00.721Z,101341.69
2022-10-29T08:10:28.704Z,101342.25
2022-10-29T08:12:58.751Z,101347.31
2022-10-29T08:15:29.309Z,101342.88
2022-10-29T08:17:58.633Z,101345.84
2022-10-29T08:20:28.144Z,101347.22
2022-10-29T08:23:43.506Z,101343.63
2022-10-29T08:26:11.212Z,101339.81
2022-10-29T08:28:38.719Z,101340.91
2022-10-29T08:31:06.584Z,101344.41
2022-10-29T08:33:35.411Z,101345.06
2022-10-29T08:36:02.949Z,101349.66
2022-10-29T08:38:30.483Z,101349.94
2022-10-29T08:41:10.497Z,101342.13
2022-10-29T08:43:52.174Z,101338.00
2022-10-29T08:46:22.053Z,101339.94
2022-10-29T08:48:53.658Z,101345.47
2022-10-29T08:51:24.945Z,101346.19
2022-10-29T08:54:24.940Z,101346.66
2022-10-29T08:56:45.512Z,101348.41
2022-10-29T08:59:15.013Z,101350.09
2022-10-29T09:01:42.906Z,101349.34
2022-10-29T09:04:22.797Z,101343.66
2022-10-29T09:06:57.399Z,101345.78
2022-10-29T09:09:30.415Z,101337.97
2022-10-29T09:12:08.497Z,101338.88
2022-10-29T09:15:03.292Z,101352.47
2022-10-29T09:17:36.663Z,101353.81
2022-10-29T09:20:21.185Z,101346.88
2022-10-29T09:22:54.154Z,101347.00
2022-10-29T09:25:25.076Z,101343.81
2022-10-29T09:28:03.122Z,101343.94
2022-10-29T09:30:32.069Z,101343.13
2022-10-29T09:33:01.924Z,101339.88
2022-10-29T09:35:38.779Z,101337.41
2022-10-29T09:38:15.147Z,101341.56
2022-10-29T09:40:43.974Z,101333.34
2022-10-29T09:43:20.843Z,101337.28
2022-10-29T09:45:54.019Z,101334.63
2022-10-29T09:48:25.429Z,101330.94
2022-10-29T09:51:00.498Z,101329.31
2022-10-29T09:53:27.994Z,101332.47
2022-10-29T09:55:55.564Z,101321.50
2022-10-29T09:58:24.692Z,101320.03
2022-10-29T10:00:52.952Z,101312.84
2022-10-29T10:03:23.956Z,101320.25
2022-10-29T10:06:00.862Z,101319.84
2022-10-29T10:08:28.406Z,101315.56
2022-10-29T10:10:57.500Z,101317.41
2022-10-29T10:13:27.727Z,101316.59
2022-10-29T10:15:56.975Z,101310.78
2022-10-29T10:18:26.260Z,101312.88
2022-10-29T10:21:06.946Z,101311.00
2022-10-29T10:23:44.062Z,101306.47
2022-10-29T10:26:32.767Z,101306.66
2022-10-29T10:29:21.813Z,101306.25
2022-10-29T10:31:50.294Z,101299.88
2022-10-29T10:34:20.744Z,101301.31
2022-10-29T10:36:52.192Z,101295.53
2022-10-29T10:39:30.796Z,101291.75
2022-10-29T10:42:00.957Z,101295.28
2022-10-29T10:44:29.125Z,101288.66
2022-10-29T10:46:59.271Z,101276.88
2022-10-29T10:49:32.395Z,101267.28
2022-10-29T10:52:04.607Z,101270.75
2022-10-29T10:54:36.634Z,101280.09
2022-10-29T10:57:05.791Z,101270.94
2022-10-29T10:59:50.526Z,101269.66
2022-10-29T11:02:26.504Z,101261.72
2022-10-29T11:05:02.138Z,101257.38
2022-10-29T11:07:35.476Z,101258.38
2022-10-29T11:10:06.506Z,101262.50
2022-10-29T11:12:37.005Z,101255.47
2022-10-29T11:15:09.051Z,101245.97
2022-10-29T11:17:41.365Z,101243.91
2022-10-29T11:20:16.055Z,101242.22
2022-10-29T11:22:54.590Z,101239.09
2022-10-29T11:25:25.031Z,101246.97
2022-10-29T11:27:56.934Z,101240.78
2022-10-29T11:30:24.472Z,101232.94
2022-10-29T11:32:59.856Z,101229.38
2022-10-29T11:35:37.713Z,101232.72
2022-10-29T11:38:11.933Z,101228.31
2022-10-29T11:40:45.729Z,101234.25
2022-10-29T11:43:14.388Z,101230.13
2022-10-29T11:45:52.496Z,101225.00
2022-10-29T11:50:59.893Z,101218.38
2022-10-29T11:53:45.468Z,101216.66
2022-10-29T11:56:17.120Z,101217.41
2022-10-29T11:58:50.982Z,101212.47
2022-10-29T12:01:25.604Z,101209.28
2022-10-29T12:04:02.613Z,101205.34
2022-10-29T12:06:35.848Z,101196.81
2022-10-29T12:09:22.211Z,101212.00
2022-10-29T12:11:55.715Z,101190.59
2022-10-29T12:14:29.789Z,101198.28
2022-10-29T12:17:01.728Z,101195.09
2022-10-29T12:19:36.910Z,101197.00
2022-10-29T12:22:12.585Z,101197.34
2022-10-29T12:24:53.486Z,101184.03
2022-10-29T12:27:27.713Z,101190.00
2022-10-29T12:30:00.020Z,101191.59
2022-10-29T12:32:33.073Z,101185.94
2022-10-29T12:35:03.756Z,101186.91
2022-10-29T12:37:38.220Z,101176.72
2022-10-29T12:40:16.154Z,101170.19
2022-10-29T12:42:44.059Z,101173.34
2022-10-29T12:45:24.915Z,101166.06
2022-10-29T12:47:57.261Z,101164.56
2022-10-29T12:50:34.603Z,101168.00
2022-10-29T12:53:08.017Z,101168.00
2022-10-29T12:55:37.249Z,101157.38
2022-10-29T12:58:38.056Z,101156.94
2022-10-29T13:01:05.681Z,101152.22
2022-10-29T13:04:02.204Z,101151.53
2022-10-29T13:06:47.266Z,101149.19
2022-10-29T13:09:19.936Z,101148.06
2022-10-29T13:11:52.170Z,101147.72
2022-10-29T13:14:24.958Z,101141.41
2022-10-29T13:16:53.269Z,101143.88
2022-10-29T13:19:38.973Z,101138.25
2022-10-29T13:22:34.263Z,101139.69
2022-10-29T13:25:30.607Z,101131.13
2022-10-29T13:28:00.104Z,101128.88
2022-10-29T13:30:32.600Z,101127.63
2022-10-29T13:33:00.734Z,101118.84
2022-10-29T13:35:42.060Z,101123.19
2022-10-29T13:38:17.188Z,101118.75
2022-10-29T13:41:17.423Z,101118.94
2022-10-29T13:43:54.573Z,101126.19
2022-10-29T13:46:30.468Z,101135.78
2022-10-29T13:48:59.174Z,101131.59
2022-10-29T13:51:35.986Z,101123.88
2022-10-29T13:54:06.913Z,101123.41
2022-10-29T13:56:40.719Z,101120.03
2022-10-29T13:59:15.941Z,101116.63
2022-10-29T14:01:53.831Z,101107.28
2022-10-29T14:04:25.334Z,101102.56
2022-10-29T14:06:53.129Z,101101.38
2022-10-29T14:09:23.655Z,101098.00
2022-10-29T14:11:56.869Z,101101.66
2022-10-29T14:14:34.558Z,101100.69
2022-10-29T14:17:12.960Z,101108.31
2022-10-29T14:19:45.608Z,101107.72
2022-10-29T14:22:33.243Z,101098.56
2022-10-29T14:25:02.056Z,101092.81
2022-10-29T14:27:30.069Z,101101.00
2022-10-29T14:30:15.565Z,101093.34
2022-10-29T14:32:45.286Z,101088.41
2022-10-29T14:35:16.638Z,101105.19
2022-10-29T14:37:45.372Z,101096.28
2022-10-29T14:40:18.863Z,101101.44
2022-10-29T14:42:49.045Z,101108.94
2022-10-29T14:45:23.984Z,101099.81
2022-10-29T14:47:53.793Z,101110.44
2022-10-29T14:50:22.958Z,101105.72
2022-10-29T14:52:53.924Z,101104.06
2022-10-29T14:55:23.882Z,101098.28
2022-10-29T14:57:56.284Z,101104.97
2022-10-29T15:00:27.025Z,101104.25
2022-10-29T15:02:56.166Z,101100.09
2022-10-29T15:05:26.594Z,101101.88
2022-10-29T15:08:05.639Z,101102.19
2022-10-29T15:10:33.471Z,101106.97
2022-10-29T15:13:15.630Z,101101.41
2022-10-29T15:15:52.691Z,101096.47
2022-10-29T15:18:21.380Z,101098.69
2022-10-29T15:20:49.053Z,101106.38
2022-10-29T15:23:20.832Z,101105.56
2022-10-29T15:25:51.112Z,101099.78
2022-10-29T15:28:24.407Z,101095.72
2022-10-29T15:30:54.248Z,101103.25
2022-10-29T15:33:23.742Z,101104.97
2022-10-29T15:35:53.334Z,101109.97
2022-10-29T15:39:05.073Z,101113.94
2022-10-29T15:41:37.992Z,101102.97
2022-10-29T15:44:33.840Z,101091.59
2022-10-29T15:47:07.077Z,101086.88
2022-10-29T15:49:34.645Z,101083.59
2022-10-29T15:52:02.258Z,101087.38
2022-10-29T15:54:30.202Z,101086.00
2022-10-29T15:56:57.806Z,101085.63
2022-10-29T15:59:26.952Z,101090.66
2022-10-29T16:01:54.837Z,101090.31
2022-10-29T16:04:23.916Z,101088.69
2022-10-29T16:06:51.557Z,101083.31
2022-10-29T16:09:21.006Z,101080.47
2022-10-29T16:11:52.504Z,101080.69
2022-10-29T16:14:20.090Z,101087.34
2022-10-29T16:16:49.393Z,101080.53
2022-10-29T16:19:16.956Z,101080.28
2022-10-29T16:21:45.852Z,101087.78
2022-10-29T16:24:15.578Z,101089.50
2022-10-29T16:26:43.151Z,101082.91
2022-10-29T16:29:11.018Z,101077.75
2022-10-29T16:31:38.644Z,101086.06
2022-10-29T16:34:07.569Z,101077.16
2022-10-29T16:36:35.194Z,101083.16
2022-10-29T16:39:04.155Z,101076.56
2022-10-29T16:41:32.095Z,101082.97
2022-10-29T16:44:01.559Z,101085.44
2022-10-29T16:46:30.363Z,101089.19
2022-10-29T16:48:58.025Z,101082.16
2022-10-29T16:51:26.543Z,101078.22
2022-10-29T16:54:03.457Z,101073.91
2022-10-29T16:56:32.681Z,101071.19
2022-10-29T16:59:02.094Z,101080.09
2022-10-29T17:01:30.208Z,101082.34
2022-10-29T17:03:58.082Z,101076.34
2022-10-29T17:06:25.689Z,101073.84
2022-10-29T17:08:53.280Z,101076.72
2022-10-29T17:11:20.902Z,101081.03
2022-10-29T17:13:50.056Z,101081.84
2022-10-29T17:16:18.884Z,101074.59
2022-10-29T17:18:50.483Z,101075.63
2022-10-29T17:21:18.308Z,101078.94
2022-10-29T17:23:46.122Z,101079.53
2022-10-29T17:26:13.672Z,101080.53
2022-10-29T17:28:45.049Z,101080.94
2022-10-29T17:31:14.081Z,101085.06
2022-10-29T17:33:41.701Z,101084.50
2022-10-29T17:36:16.372Z,101081.13
2022-10-29T17:38:43.985Z,101081.09
2022-10-29T17:41:11.825Z,101085.75
2022-10-29T17:43:39.624Z,101078.41
2022-10-29T17:46:10.445Z,101083.13
2022-10-29T17:48:39.911Z,101082.81
2022-10-29T17:51:08.511Z,101082.63
2022-10-29T17:53:36.031Z,101078.34
2022-10-29T17:56:03.535Z,101083.41
2022-10-29T17:58:31.400Z,101096.81
2022-10-29T18:01:04.304Z,101094.31
2022-10-29T18:03:31.889Z,101097.34
2022-10-29T18:06:01.995Z,101089.38
2022-10-29T18:08:30.096Z,101089.03
2022-10-29T18:11:03.652Z,101090.81
2022-10-29T18:13:35.236Z,101093.06
2022-10-29T18:16:03.532Z,101093.72
2022-10-29T18:18:42.921Z,101097.34
2022-10-29T18:21:24.846Z,101105.81
2022-10-29T18:23:53.098Z,101091.56
2022-10-29T18:26:23.721Z,101100.16
2022-10-29T18:28:51.852Z,101093.69
2022-10-29T18:31:19.573Z,101090.00
2022-10-29T18:33:47.183Z,101087.69
2022-10-29T18:36:14.847Z,101096.06
2022-10-29T18:38:43.786Z,101096.78
2022-10-29T18:41:11.440Z,101092.06
2022-10-29T18:43:39.064Z,101094.09
2022-10-29T18:46:07.403Z,101093.63
2022-10-29T18:48:38.513Z,101092.75
2022-10-29T18:51:08.026Z,101082.31
2022-10-29T18:53:36.636Z,101097.06
2022-10-29T18:56:09.682Z,101098.59
2022-10-29T18:58:37.354Z,101097.53
2022-10-29T19:01:06.395Z,101099.13
2022-10-29T19:03:37.417Z,101094.97
2022-10-29T19:06:09.486Z,101098.59
2022-10-29T19:08:37.831Z,101093.19
2022-10-29T19:11:09.228Z,101094.72
2022-10-29T19:13:36.958Z,101091.09
2022-10-29T19:16:08.923Z,101092.31
2022-10-29T19:18:37.495Z,101093.88
2022-10-29T19:21:05.320Z,101092.59
2022-10-29T19:23:33.173Z,101095.78
2022-10-29T19:26:07.093Z,101083.88
2022-10-29T19:28:36.616Z,101087.63
2022-10-29T19:31:05.152Z,101091.94
2022-10-29T19:33:35.392Z,101087.13
2022-10-29T19:36:03.547Z,101088.59
2022-10-29T19:38:31.083Z,101082.53
2022-10-29T19:40:58.661Z,101081.13
2022-10-29T19:43:26.856Z,101089.78
2022-10-29T19:45:55.919Z,101083.78
2022-10-29T19:48:23.764Z,101078.06
2022-10-29T19:50:53.706Z,101090.31
2022-10-29T19:53:22.658Z,101082.13
2022-10-29T19:55:51.925Z,101081.84
2022-10-29T19:58:20.136Z,101084.31
2022-10-29T20:00:47.943Z,101088.91
2022-10-29T20:03:17.803Z,101087.38
2022-10-29T20:05:45.948Z,101090.28
2022-10-29T20:08:16.008Z,101092.03
2022-10-29T20:10:44.256Z,101084.94
2022-10-29T20:13:12.046Z,101087.72
2022-10-29T20:15:40.178Z,101091.56
2022-10-29T20:18:07.891Z,101087.41
2022-10-29T20:20:36.955Z,101090.25
2022-10-29T20:23:04.615Z,101084.13
2022-10-29T20:25:32.493Z,101090.28
2022-10-29T20:28:01.762Z,101088.84
2022-10-29T20:30:29.908Z,101095.94
2022-10-29T20:32:57.972Z,101089.22
2022-10-29T20:35:25.790Z,101085.03
2022-10-29T20:37:54.994Z,101093.88
2022-10-29T20:40:22.889Z,101083.56
2022-10-29T20:42:51.593Z,101084.59
2022-10-29T20:45:19.711Z,101085.88
2022-10-29T20:47:47.605Z,101075.66
2022-10-29T20:50:15.327Z,101079.16
2022-10-29T20:52:48.096Z,101082.75
2022-10-29T20:55:17.554Z,101079.16
2022-10-29T20:57:45.816Z,101087.06
2022-10-29T21:00:14.243Z,101083.69
2022-10-29T21:02:41.989Z,101085.16
2022-10-29T21:05:10.178Z,101093.25
2022-10-29T21:07:39.648Z,101092.06
2022-10-29T21:10:10.797Z,101084.22
2022-10-29T21:12:39.800Z,101085.03
2022-10-29T21:15:08.485Z,101089.28
2022-10-29T21:17:36.101Z,101080.44
2022-10-29T21:20:03.930Z,101086.06
2022-10-29T21:22:31.475Z,101080.81
2022-10-29T21:24:59.125Z,101084.56
2022-10-29T21:27:26.760Z,101085.69
2022-10-29T21:29:55.768Z,101080.44
2022-10-29T21:32:23.457Z,101078.78
2022-10-29T21:34:51.007Z,101086.78
2022-10-29T21:37:18.621Z,101078.78
2022-10-29T21:39:46.422Z,101081.38
2022-10-29T21:42:13.999Z,101083.47
2022-10-29T21:44:41.608Z,101073.56
2022-10-29T21:47:10.555Z,101075.03
2022-10-29T21:49:38.152Z,101076.41
2022-10-29T21:52:06.338Z,101073.25
2022-10-29T21:54:34.043Z,101074.06
2022-10-29T21:57:03.004Z,101071.13
2022-10-29T21:59:30.592Z,101068.63
2022-10-29T22:01:59.446Z,101073.81
2022-10-29T22:04:29.952Z,101077.38
2022-10-29T22:06:57.610Z,101070.75
2022-10-29T22:09:25.254Z,101071.75
2022-10-29T22:11:52.736Z,101080.13
2022-10-29T22:14:20.339Z,101078.03
2022-10-29T22:16:47.944Z,101082.41
2022-10-29T22:19:15.500Z,101075.00
2022-10-29T22:21:46.218Z,101069.03
2022-10-29T22:24:14.083Z,101068.66
2022-10-29T22:26:41.853Z,101068.53
2022-10-29T22:29:09.756Z,101064.97
2022-10-29T22:31:37.416Z,101066.72
2022-10-29T22:34:05.386Z,101070.47
2022-10-29T22:36:33.153Z,101066.28
2022-10-29T22:39:02.779Z,101062.59
2022-10-29T22:41:32.985Z,101065.06
2022-10-29T22:44:00.977Z,101059.72
2022-10-29T22:46:29.317Z,101060.63
2022-10-29T22:48:57.332Z,101053.66
2022-10-29T22:51:26.800Z,101061.84
2022-10-29T22:53:54.950Z,101065.50
2022-10-29T22:56:25.437Z,101056.03
2022-10-29T22:58:53.410Z,101059.72
2022-10-29T23:01:22.786Z,101061.91
2022-10-29T23:03:50.721Z,101051.63
2022-10-29T23:06:19.494Z,101047.13
2022-10-29T23:08:48.123Z,101055.03
2022-10-29T23:11:19.401Z,101053.38
2022-10-29T23:13:49.028Z,101056.41
2022-10-29T23:16:16.816Z,101060.47
2022-10-29T23:18:49.118Z,101070.22
2022-10-29T23:21:17.493Z,101072.91
2022-10-29T23:23:47.163Z,101072.59
2022-10-29T23:26:15.387Z,101072.97
2022-10-29T23:28:43.137Z,101077.13
2022-10-29T23:31:14.035Z,101069.84
2022-10-29T23:33:45.301Z,101072.25
2022-10-29T23:36:13.561Z,101076.66
2022-10-29T23:38:41.196Z,101066.16
2022-10-29T23:41:08.913Z,101073.53
2022-10-29T23:43:36.544Z,101073.34
2022-10-29T23:46:04.586Z,101063.88
2022-10-29T23:48:33.687Z,101063.31
2022-10-29T23:51:01.375Z,101062.69
2022-10-29T23:53:29.478Z,101060.66
2022-10-29T23:55:56.964Z,101051.16
2022-10-29T23:58:25.103Z,101054.28
